X  Fechar Dados meteorológicos de METAR da aviação        LECH Castellon-Costa Azahar
Temperatura
30°C Temperatura
18°C Ponto de orvalho
49% Umidade



Vento
19 KM/H
12 MPH
5 M/S
10 NÓS



120°
LSL
Condições atuais

Mostly Sunny Principalmente ensolarado
Pressão 1014 (hPa) - 29.93 (inHg)
Visibilidade 6 (milha) - 10 (km)
Aeroporto
Código do aeroporto LECH

Localização: Castellon-Costa Azahar
Distância: 45 (km)

Metar:
METAR LECH 241530Z AUTO 12010KT 080V150 CAVOK 30/18 Q1016

Hora: 24-07-2024 17:30 CEST